• Join FlightAware (Why Join?)
  • Login
  • US Flag 
07:41PM EST


 

Airport Tracker/Info


-or-


 

Live Flight TrackerFlight Track Log ✈ GGA1 ✈ 07-May-2013 ✈ KCHA - KAHN

Flight Track Log - Related Links

Times and Time Zones

All times are in EDT time to prevent confusion due to time zone crossing. See the GGA1 flight status page for this flight to view local times or setup timezone preferences in your user account.

Time Position Orientation Groundspeed Altitude Reporting Facility
EDT Latitude Longitude Course Direction KTS MPH feet Rate Location/Type
03:14PM 34.8908 -85.2011 165° South 205 236 5,700  Level Atlanta Center
03:15PM 34.8303 -85.1900 171° South 218 251 7,100 1,650 Climbing Atlanta Center
03:16PM 34.7764 -85.1642 159° South 218 251 9,000 1,650 Climbing Atlanta Center
03:17PM 34.7475 -85.1031 120° Southeast 197 227 10,400 950 Climbing Atlanta Center
03:18PM 34.8267 -84.8467 125° Southeast  Level FlightAware Approximate
03:18PM 34.7169 -85.0319 118° Southeast 210 242 10,900  Level Atlanta Center
03:19PM 34.7926 -84.7871 125° Southeast  Level FlightAware Approximate
03:19PM 34.6819 -84.9506 118° Southeast 243 280 10,900  Level Atlanta Center
03:20PM 34.6492 -84.8669 115° Southeast 261 300 11,000  Climbing Atlanta Center
03:21PM 34.6122 -84.7883 120° Southeast 266 306 10,900 -50 Descending Atlanta Center
03:22PM 34.5833 -84.7072 113° Southeast 266 306 10,900 50 Level Atlanta Center
03:23PM 34.5608 -84.6214 108° East 261 300 11,000 50 Climbing Atlanta Center
03:24PM 34.5364 -84.5281 108° East 261 300 11,000  Level Atlanta Center
03:25PM 34.5117 -84.4422 109° East 266 306 11,000 -50 Level Atlanta Center
03:26PM 34.4722 -84.3614 121° Southeast 271 312 10,900  Descending Atlanta Center
03:27PM 34.4328 -84.2806 121° Southeast 276 318 11,000 -100 Climbing Atlanta Center
03:28PM 34.3953 -84.2025 120° Southeast 276 318 10,700 -450 Descending Atlanta Center
03:29PM 34.3536 -84.1219 122° Southeast 276 318 10,100 -850 Descending Atlanta Center
03:30PM 34.3097 -84.0389 123° Southeast 276 318 9,000 -1,100 Descending Atlanta Center
03:31PM 34.2722 -83.9608 120° Southeast 282 325 7,900 -1,350 Descending Atlanta Center
03:32PM 34.2303 -83.8781 121° Southeast 287 330 6,300 -1,400 Descending Atlanta Center
03:33PM 34.1947 -83.7978 118° Southeast 279 321 5,100 -900 Descending Atlanta Center
03:34PM 34.1611 -83.7175 117° Southeast 265 305 4,500 -500 Descending Atlanta Center
03:35PM 34.1297 -83.6397 116° Southeast 258 297 4,100 -500 Descending Atlanta Center
03:36PM 34.0958 -83.5622 118° Southeast 258 297 3,500 1,450 Descending Atlanta Center
03:37PM 34.0686 -83.4819 112° Southeast 258 297 7,000 -400 Climbing Atlanta Center
03:38PM 34.0161 -83.4222 137° Southeast 258 297 2,700 -2,300 Descending Atlanta Center
03:39PM 33.9717 -83.3450 125° Southeast 258 297 2,400 -300 Descending Atlanta Center
03:41PM 33.9486 -83.3264 129° Southeast  Level Estimated
03:48PM 33.9486 -83.3264 129° Southeast  Level Estimated
03:49PM 33.9486 -83.3264 129° Southeast  Level Estimated
03:50PM 33.9486 -83.3264 129° Southeast  Level Estimated